sensor_id;sensor_type;location;lat;lon;timestamp;P1;durP1;ratioP1;P2;durP2;ratioP2
34952;SDS011;21164;54.378;10.202;2022-08-03T03:28:37;8.52;;;6.47;;
34952;SDS011;21164;54.378;10.202;2022-08-03T03:31:04;9.75;;;6.95;;
34952;SDS011;21164;54.378;10.202;2022-08-03T03:33:31;12.52;;;7.32;;
34952;SDS011;21164;54.378;10.202;2022-08-03T03:35:58;8.10;;;6.05;;
34952;SDS011;21164;54.378;10.202;2022-08-03T03:38:24;9.07;;;6.70;;
34952;SDS011;21164;54.378;10.202;2022-08-03T03:40:50;8.45;;;6.57;;
34952;SDS011;21164;54.378;10.202;2022-08-03T03:43:16;8.80;;;6.85;;
34952;SDS011;21164;54.378;10.202;2022-08-03T03:45:44;8.82;;;7.05;;
34952;SDS011;21164;54.378;10.202;2022-08-03T03:48:12;8.65;;;7.40;;
34952;SDS011;21164;54.378;10.202;2022-08-03T03:50:38;9.40;;;6.70;;
34952;SDS011;21164;54.378;10.202;2022-08-03T03:53:09;7.78;;;6.97;;
34952;SDS011;21164;54.378;10.202;2022-08-03T03:55:36;8.13;;;6.60;;
34952;SDS011;21164;54.378;10.202;2022-08-03T04:00:28;7.60;;;6.50;;
34952;SDS011;21164;54.378;10.202;2022-08-03T04:02:54;8.35;;;6.75;;
34952;SDS011;21164;54.378;10.202;2022-08-03T04:05:20;10.65;;;6.63;;
34952;SDS011;21164;54.378;10.202;2022-08-03T04:08:08;7.68;;;6.78;;
34952;SDS011;21164;54.378;10.202;2022-08-03T04:13:45;9.40;;;6.88;;
34952;SDS011;21164;54.378;10.202;2022-08-03T04:16:39;8.13;;;6.35;;
34952;SDS011;21164;54.378;10.202;2022-08-03T04:19:08;7.55;;;6.75;;
34952;SDS011;21164;54.378;10.202;2022-08-03T04:21:40;11.57;;;7.07;;
34952;SDS011;21164;54.378;10.202;2022-08-03T04:24:08;8.52;;;6.60;;
34952;SDS011;21164;54.378;10.202;2022-08-03T04:26:36;9.13;;;7.10;;
34952;SDS011;21164;54.378;10.202;2022-08-03T04:29:05;8.27;;;6.72;;
34952;SDS011;21164;54.378;10.202;2022-08-03T04:31:34;9.07;;;7.07;;
34952;SDS011;21164;54.378;10.202;2022-08-03T04:34:00;8.23;;;6.78;;
34952;SDS011;21164;54.378;10.202;2022-08-03T04:38:59;8.13;;;7.10;;
34952;SDS011;21164;54.378;10.202;2022-08-03T04:41:29;7.55;;;6.53;;
34952;SDS011;21164;54.378;10.202;2022-08-03T04:43:56;10.95;;;6.97;;
34952;SDS011;21164;54.378;10.202;2022-08-03T04:46:26;10.82;;;6.90;;
34952;SDS011;21164;54.378;10.202;2022-08-03T04:48:55;9.13;;;7.00;;
34952;SDS011;21164;54.378;10.202;2022-08-03T04:51:22;9.57;;;7.05;;
34952;SDS011;21164;54.378;10.202;2022-08-03T04:53:48;8.93;;;6.95;;
34952;SDS011;21164;54.378;10.202;2022-08-03T04:56:14;9.98;;;6.63;;
34952;SDS011;21164;54.378;10.202;2022-08-03T04:58:40;9.45;;;6.80;;
34952;SDS011;21164;54.378;10.202;2022-08-03T05:01:05;8.82;;;6.60;;
34952;SDS011;21164;54.378;10.202;2022-08-03T05:03:31;9.35;;;7.15;;
34952;SDS011;21164;54.378;10.202;2022-08-03T05:05:57;8.30;;;6.43;;
34952;SDS011;21164;54.378;10.202;2022-08-03T05:08:22;10.20;;;7.07;;
34952;SDS011;21164;54.378;10.202;2022-08-03T05:10:48;12.88;;;7.07;;
34952;SDS011;21164;54.378;10.202;2022-08-03T05:13:14;8.38;;;6.70;;
34952;SDS011;21164;54.378;10.202;2022-08-03T05:15:39;12.13;;;7.47;;
34952;SDS011;21164;54.378;10.202;2022-08-03T05:18:06;9.05;;;6.85;;
34952;SDS011;21164;54.378;10.202;2022-08-03T05:20:31;11.07;;;6.75;;
34952;SDS011;21164;54.378;10.202;2022-08-03T05:22:57;9.85;;;7.13;;
34952;SDS011;21164;54.378;10.202;2022-08-03T05:25:25;8.40;;;6.68;;
34952;SDS011;21164;54.378;10.202;2022-08-03T05:27:51;13.07;;;7.70;;
34952;SDS011;21164;54.378;10.202;2022-08-03T05:30:16;8.10;;;6.78;;
34952;SDS011;21164;54.378;10.202;2022-08-03T05:32:42;9.45;;;6.47;;
34952;SDS011;21164;54.378;10.202;2022-08-03T05:35:08;9.20;;;6.50;;
34952;SDS011;21164;54.378;10.202;2022-08-03T05:37:34;11.05;;;6.93;;
34952;SDS011;21164;54.378;10.202;2022-08-03T05:39:59;10.00;;;6.25;;
34952;SDS011;21164;54.378;10.202;2022-08-03T05:42:25;7.53;;;6.03;;
34952;SDS011;21164;54.378;10.202;2022-08-03T05:44:50;7.82;;;6.05;;
34952;SDS011;21164;54.378;10.202;2022-08-03T05:47:16;10.25;;;6.40;;
34952;SDS011;21164;54.378;10.202;2022-08-03T05:49:44;7.18;;;5.55;;
34952;SDS011;21164;54.378;10.202;2022-08-03T05:54:35;10.13;;;6.47;;
34952;SDS011;21164;54.378;10.202;2022-08-03T05:57:01;6.60;;;5.80;;
34952;SDS011;21164;54.378;10.202;2022-08-03T05:59:26;7.50;;;5.90;;
34952;SDS011;21164;54.378;10.202;2022-08-03T06:01:52;8.18;;;5.53;;
34952;SDS011;21164;54.378;10.202;2022-08-03T06:06:43;7.97;;;5.65;;
34952;SDS011;21164;54.378;10.202;2022-08-03T06:11:35;10.43;;;6.03;;
34952;SDS011;21164;54.378;10.202;2022-08-03T06:14:01;9.80;;;5.95;;
34952;SDS011;21164;54.378;10.202;2022-08-03T06:18:52;9.05;;;5.28;;
34952;SDS011;21164;54.378;10.202;2022-08-03T06:23:44;8.38;;;5.60;;
34952;SDS011;21164;54.378;10.202;2022-08-03T06:26:10;10.18;;;5.15;;
34952;SDS011;21164;54.378;10.202;2022-08-03T06:31:01;9.65;;;4.97;;
34952;SDS011;21164;54.378;10.202;2022-08-03T06:33:27;8.23;;;4.78;;
34952;SDS011;21164;54.378;10.202;2022-08-03T06:38:19;6.88;;;4.30;;
34952;SDS011;21164;54.378;10.202;2022-08-03T06:40:44;9.65;;;4.00;;
34952;SDS011;21164;54.378;10.202;2022-08-03T06:45:36;7.95;;;4.43;;
34952;SDS011;21164;54.378;10.202;2022-08-03T06:50:45;10.73;;;4.15;;
34952;SDS011;21164;54.378;10.202;2022-08-03T06:55:36;5.68;;;3.40;;
34952;SDS011;21164;54.378;10.202;2022-08-03T07:00:27;6.38;;;3.85;;
34952;SDS011;21164;54.378;10.202;2022-08-03T07:02:54;11.15;;;4.13;;
34952;SDS011;21164;54.378;10.202;2022-08-03T07:07:46;8.50;;;3.80;;
34952;SDS011;21164;54.378;10.202;2022-08-03T07:10:13;13.20;;;4.10;;
34952;SDS011;21164;54.378;10.202;2022-08-03T07:15:04;9.48;;;3.58;;
34952;SDS011;21164;54.378;10.202;2022-08-03T07:19:57;7.10;;;3.78;;
34952;SDS011;21164;54.378;10.202;2022-08-03T07:22:24;6.18;;;3.15;;
34952;SDS011;21164;54.378;10.202;2022-08-03T07:27:15;9.10;;;4.13;;
34952;SDS011;21164;54.378;10.202;2022-08-03T07:29:41;8.20;;;4.10;;
34952;SDS011;21164;54.378;10.202;2022-08-03T07:34:32;9.77;;;4.20;;
34952;SDS011;21164;54.378;10.202;2022-08-03T07:39:23;9.80;;;4.20;;
34952;SDS011;21164;54.378;10.202;2022-08-03T07:44:15;11.03;;;3.50;;
34952;SDS011;21164;54.378;10.202;2022-08-03T07:46:41;7.50;;;3.60;;
34952;SDS011;21164;54.378;10.202;2022-08-03T07:51:33;7.78;;;3.65;;
34952;SDS011;21164;54.378;10.202;2022-08-03T07:56:24;5.68;;;3.40;;
34952;SDS011;21164;54.378;10.202;2022-08-03T08:01:16;7.80;;;3.58;;
34952;SDS011;21164;54.378;10.202;2022-08-03T08:03:43;4.30;;;3.10;;
34952;SDS011;21164;54.378;10.202;2022-08-03T08:06:12;10.30;;;3.00;;
34952;SDS011;21164;54.378;10.202;2022-08-03T08:11:03;6.93;;;2.65;;
34952;SDS011;21164;54.378;10.202;2022-08-03T08:13:29;5.82;;;2.70;;
34952;SDS011;21164;54.378;10.202;2022-08-03T08:18:21;8.05;;;3.00;;
34952;SDS011;21164;54.378;10.202;2022-08-03T08:20:48;6.60;;;3.08;;
34952;SDS011;21164;54.378;10.202;2022-08-03T08:23:14;7.70;;;3.15;;
34952;SDS011;21164;54.378;10.202;2022-08-03T08:25:41;6.18;;;3.38;;
34952;SDS011;21164;54.378;10.202;2022-08-03T08:30:32;5.85;;;3.60;;
34952;SDS011;21164;54.378;10.202;2022-08-03T08:35:24;6.50;;;3.30;;
34952;SDS011;21164;54.378;10.202;2022-08-03T08:40:15;5.50;;;3.40;;
34952;SDS011;21164;54.378;10.202;2022-08-03T08:42:44;5.40;;;3.38;;
34952;SDS011;21164;54.378;10.202;2022-08-03T08:45:11;6.18;;;3.17;;
34952;SDS011;21164;54.378;10.202;2022-08-03T08:47:39;8.38;;;3.55;;
34952;SDS011;21164;54.378;10.202;2022-08-03T08:50:09;8.50;;;3.50;;
34952;SDS011;21164;54.378;10.202;2022-08-03T08:52:35;7.55;;;3.20;;
34952;SDS011;21164;54.378;10.202;2022-08-03T08:55:04;6.05;;;3.05;;
34952;SDS011;21164;54.378;10.202;2022-08-03T08:57:36;5.10;;;2.95;;
34952;SDS011;21164;54.378;10.202;2022-08-03T09:00:04;6.03;;;2.80;;
34952;SDS011;21164;54.378;10.202;2022-08-03T09:02:33;4.72;;;3.28;;
34952;SDS011;21164;54.378;10.202;2022-08-03T09:07:26;5.90;;;3.30;;
34952;SDS011;21164;54.378;10.202;2022-08-03T09:09:52;7.65;;;3.20;;
34952;SDS011;21164;54.378;10.202;2022-08-03T09:14:43;8.07;;;3.40;;
34952;SDS011;21164;54.378;10.202;2022-08-03T09:19:35;9.23;;;2.88;;
34952;SDS011;21164;54.378;10.202;2022-08-03T09:24:33;7.13;;;3.40;;
34952;SDS011;21164;54.378;10.202;2022-08-03T09:26:59;7.80;;;2.90;;
34952;SDS011;21164;54.378;10.202;2022-08-03T09:31:58;9.05;;;3.30;;
34952;SDS011;21164;54.378;10.202;2022-08-03T09:34:25;6.60;;;3.20;;
34952;SDS011;21164;54.378;10.202;2022-08-03T09:36:54;5.05;;;2.95;;
34952;SDS011;21164;54.378;10.202;2022-08-03T09:39:22;6.82;;;2.85;;
34952;SDS011;21164;54.378;10.202;2022-08-03T09:44:36;8.93;;;3.00;;
34952;SDS011;21164;54.378;10.202;2022-08-03T09:47:07;5.57;;;2.90;;
34952;SDS011;21164;54.378;10.202;2022-08-03T09:49:37;5.65;;;2.80;;
34952;SDS011;21164;54.378;10.202;2022-08-03T09:52:16;8.98;;;3.00;;
34952;SDS011;21164;54.378;10.202;2022-08-03T09:54:44;7.10;;;3.20;;
34952;SDS011;21164;54.378;10.202;2022-08-03T09:57:20;8.68;;;2.80;;
34952;SDS011;21164;54.378;10.202;2022-08-03T09:59:50;5.55;;;2.50;;
34952;SDS011;21164;54.378;10.202;2022-08-03T10:02:20;9.25;;;3.05;;
34952;SDS011;21164;54.378;10.202;2022-08-03T10:04:50;6.57;;;2.60;;
34952;SDS011;21164;54.378;10.202;2022-08-03T10:07:17;6.53;;;3.15;;
34952;SDS011;21164;54.378;10.202;2022-08-03T10:10:17;8.65;;;3.05;;
34952;SDS011;21164;54.378;10.202;2022-08-03T10:12:36;11.00;;;2.85;;
34952;SDS011;21164;54.378;10.202;2022-08-03T10:15:03;7.28;;;2.70;;
34952;SDS011;21164;54.378;10.202;2022-08-03T10:17:29;10.05;;;3.17;;
34952;SDS011;21164;54.378;10.202;2022-08-03T10:19:55;7.22;;;2.75;;
34952;SDS011;21164;54.378;10.202;2022-08-03T10:22:23;8.27;;;2.65;;
34952;SDS011;21164;54.378;10.202;2022-08-03T10:24:55;6.15;;;3.00;;
34952;SDS011;21164;54.378;10.202;2022-08-03T10:27:28;5.50;;;2.50;;
34952;SDS011;21164;54.378;10.202;2022-08-03T10:29:59;10.75;;;2.83;;
34952;SDS011;21164;54.378;10.202;2022-08-03T10:35:13;6.20;;;2.90;;
34952;SDS011;21164;54.378;10.202;2022-08-03T10:37:43;6.72;;;2.55;;
34952;SDS011;21164;54.378;10.202;2022-08-03T10:40:32;10.63;;;3.05;;
34952;SDS011;21164;54.378;10.202;2022-08-03T10:43:01;4.75;;;2.40;;
34952;SDS011;21164;54.378;10.202;2022-08-03T10:45:31;5.35;;;2.20;;
34952;SDS011;21164;54.378;10.202;2022-08-03T10:48:00;6.38;;;2.70;;
34952;SDS011;21164;54.378;10.202;2022-08-03T10:50:26;8.40;;;2.40;;
34952;SDS011;21164;54.378;10.202;2022-08-03T10:52:56;6.95;;;2.08;;
34952;SDS011;21164;54.378;10.202;2022-08-03T10:55:31;8.65;;;2.42;;
34952;SDS011;21164;54.378;10.202;2022-08-03T11:01:19;6.90;;;2.40;;
34952;SDS011;21164;54.378;10.202;2022-08-03T11:04:13;5.57;;;2.00;;
34952;SDS011;21164;54.378;10.202;2022-08-03T11:06:40;7.15;;;2.45;;
34952;SDS011;21164;54.378;10.202;2022-08-03T11:11:39;6.47;;;2.35;;
34952;SDS011;21164;54.378;10.202;2022-08-03T11:16:44;5.80;;;2.17;;
34952;SDS011;21164;54.378;10.202;2022-08-03T11:19:15;9.75;;;2.85;;
34952;SDS011;21164;54.378;10.202;2022-08-03T11:43:05;6.57;;;2.40;;
34952;SDS011;21164;54.378;10.202;2022-08-03T11:45:31;6.53;;;2.47;;
34952;SDS011;21164;54.378;10.202;2022-08-03T11:47:58;8.55;;;2.60;;
34952;SDS011;21164;54.378;10.202;2022-08-03T11:50:36;7.25;;;2.30;;
34952;SDS011;21164;54.378;10.202;2022-08-03T11:53:02;11.52;;;2.97;;
34952;SDS011;21164;54.378;10.202;2022-08-03T11:55:29;6.95;;;2.40;;
34952;SDS011;21164;54.378;10.202;2022-08-03T11:57:57;11.35;;;2.70;;
34952;SDS011;21164;54.378;10.202;2022-08-03T12:00:27;12.57;;;2.75;;
34952;SDS011;21164;54.378;10.202;2022-08-03T12:05:35;9.38;;;2.95;;
34952;SDS011;21164;54.378;10.202;2022-08-03T12:10:50;10.90;;;2.35;;
34952;SDS011;21164;54.378;10.202;2022-08-03T12:13:17;10.90;;;2.30;;
34952;SDS011;21164;54.378;10.202;2022-08-03T12:15:49;9.02;;;2.25;;
34952;SDS011;21164;54.378;10.202;2022-08-03T12:18:20;11.88;;;3.20;;
34952;SDS011;21164;54.378;10.202;2022-08-03T12:20:46;11.55;;;3.00;;
34952;SDS011;21164;54.378;10.202;2022-08-03T12:23:14;16.20;;;3.10;;
34952;SDS011;21164;54.378;10.202;2022-08-03T12:25:40;9.02;;;2.78;;
34952;SDS011;21164;54.378;10.202;2022-08-03T12:30:49;13.50;;;3.15;;
34952;SDS011;21164;54.378;10.202;2022-08-03T12:33:17;11.30;;;2.88;;
34952;SDS011;21164;54.378;10.202;2022-08-03T12:36:03;10.30;;;2.75;;
34952;SDS011;21164;54.378;10.202;2022-08-03T12:38:37;18.27;;;3.40;;
34952;SDS011;21164;54.378;10.202;2022-08-03T12:43:29;16.08;;;2.85;;
34952;SDS011;21164;54.378;10.202;2022-08-03T12:46:08;15.60;;;4.20;;
34952;SDS011;21164;54.378;10.202;2022-08-03T12:48:35;17.00;;;4.05;;
34952;SDS011;21164;54.378;10.202;2022-08-03T12:51:07;18.63;;;3.38;;
34952;SDS011;21164;54.378;10.202;2022-08-03T12:53:35;16.15;;;3.67;;
34952;SDS011;21164;54.378;10.202;2022-08-03T12:56:02;14.52;;;3.10;;
34952;SDS011;21164;54.378;10.202;2022-08-03T12:58:33;15.30;;;3.45;;
34952;SDS011;21164;54.378;10.202;2022-08-03T13:01:00;17.10;;;4.00;;
34952;SDS011;21164;54.378;10.202;2022-08-03T13:03:27;14.45;;;3.58;;
34952;SDS011;21164;54.378;10.202;2022-08-03T13:05:52;14.18;;;3.15;;
34952;SDS011;21164;54.378;10.202;2022-08-03T13:08:19;12.88;;;3.42;;
34952;SDS011;21164;54.378;10.202;2022-08-03T13:10:47;17.77;;;3.17;;
34952;SDS011;21164;54.378;10.202;2022-08-03T13:13:13;14.02;;;3.60;;
34952;SDS011;21164;54.378;10.202;2022-08-03T13:15:38;12.85;;;3.00;;
34952;SDS011;21164;54.378;10.202;2022-08-03T13:18:04;17.50;;;3.65;;
34952;SDS011;21164;54.378;10.202;2022-08-03T13:20:30;17.55;;;3.83;;
34952;SDS011;21164;54.378;10.202;2022-08-03T13:22:56;15.30;;;2.90;;
34952;SDS011;21164;54.378;10.202;2022-08-03T13:25:21;16.08;;;3.78;;
34952;SDS011;21164;54.378;10.202;2022-08-03T13:27:47;11.30;;;2.80;;
34952;SDS011;21164;54.378;10.202;2022-08-03T13:30:13;15.10;;;3.78;;
34952;SDS011;21164;54.378;10.202;2022-08-03T13:32:40;15.45;;;3.72;;
34952;SDS011;21164;54.378;10.202;2022-08-03T13:35:06;15.00;;;3.70;;
34952;SDS011;21164;54.378;10.202;2022-08-03T13:37:33;14.48;;;2.80;;
34952;SDS011;21164;54.378;10.202;2022-08-03T13:39:59;12.65;;;2.97;;
34952;SDS011;21164;54.378;10.202;2022-08-03T13:42:26;15.20;;;3.00;;
34952;SDS011;21164;54.378;10.202;2022-08-03T13:44:53;17.00;;;3.67;;
34952;SDS011;21164;54.378;10.202;2022-08-03T13:47:18;14.85;;;3.55;;
34952;SDS011;21164;54.378;10.202;2022-08-03T13:49:44;15.60;;;3.72;;
34952;SDS011;21164;54.378;10.202;2022-08-03T13:52:10;13.27;;;3.45;;
34952;SDS011;21164;54.378;10.202;2022-08-03T13:54:35;16.08;;;2.63;;
34952;SDS011;21164;54.378;10.202;2022-08-03T13:57:01;13.25;;;2.90;;
34952;SDS011;21164;54.378;10.202;2022-08-03T13:59:26;15.02;;;3.42;;
34952;SDS011;21164;54.378;10.202;2022-08-03T14:01:52;12.00;;;2.22;;
34952;SDS011;21164;54.378;10.202;2022-08-03T14:04:18;11.77;;;2.75;;
34952;SDS011;21164;54.378;10.202;2022-08-03T14:06:45;10.40;;;2.63;;
34952;SDS011;21164;54.378;10.202;2022-08-03T14:09:14;11.23;;;2.80;;
34952;SDS011;21164;54.378;10.202;2022-08-03T14:11:41;11.13;;;2.70;;
34952;SDS011;21164;54.378;10.202;2022-08-03T14:14:08;15.32;;;3.15;;
34952;SDS011;21164;54.378;10.202;2022-08-03T14:16:34;18.73;;;3.58;;
34952;SDS011;21164;54.378;10.202;2022-08-03T14:19:00;14.55;;;2.95;;
34952;SDS011;21164;54.378;10.202;2022-08-03T14:21:25;15.00;;;3.42;;
34952;SDS011;21164;54.378;10.202;2022-08-03T14:23:51;10.02;;;2.50;;
34952;SDS011;21164;54.378;10.202;2022-08-03T14:26:17;15.10;;;3.10;;
34952;SDS011;21164;54.378;10.202;2022-08-03T14:28:44;13.20;;;2.95;;
34952;SDS011;21164;54.378;10.202;2022-08-03T14:31:10;13.48;;;3.55;;
34952;SDS011;21164;54.378;10.202;2022-08-03T14:33:36;13.32;;;3.70;;
34952;SDS011;21164;54.378;10.202;2022-08-03T14:36:01;11.32;;;3.42;;
34952;SDS011;21164;54.378;10.202;2022-08-03T14:38:28;8.73;;;2.58;;
34952;SDS011;21164;54.378;10.202;2022-08-03T14:40:53;10.95;;;2.35;;
34952;SDS011;21164;54.378;10.202;2022-08-03T14:43:19;12.98;;;2.70;;
34952;SDS011;21164;54.378;10.202;2022-08-03T14:45:48;15.57;;;2.92;;
34952;SDS011;21164;54.378;10.202;2022-08-03T14:48:17;11.90;;;2.80;;
34952;SDS011;21164;54.378;10.202;2022-08-03T14:50:47;13.93;;;3.03;;
34952;SDS011;21164;54.378;10.202;2022-08-03T14:53:13;11.98;;;2.70;;
34952;SDS011;21164;54.378;10.202;2022-08-03T14:55:41;14.18;;;3.10;;
34952;SDS011;21164;54.378;10.202;2022-08-03T14:58:07;9.20;;;2.25;;
34952;SDS011;21164;54.378;10.202;2022-08-03T15:00:33;15.45;;;3.35;;
34952;SDS011;21164;54.378;10.202;2022-08-03T15:02:59;15.55;;;2.80;;
34952;SDS011;21164;54.378;10.202;2022-08-03T15:05:26;10.25;;;2.40;;
34952;SDS011;21164;54.378;10.202;2022-08-03T15:07:51;12.43;;;2.63;;
34952;SDS011;21164;54.378;10.202;2022-08-03T15:10:17;8.93;;;2.67;;
34952;SDS011;21164;54.378;10.202;2022-08-03T15:12:42;13.23;;;2.55;;
34952;SDS011;21164;54.378;10.202;2022-08-03T15:15:08;8.05;;;2.55;;
34952;SDS011;21164;54.378;10.202;2022-08-03T15:17:34;8.98;;;2.47;;
34952;SDS011;21164;54.378;10.202;2022-08-03T15:20:00;16.60;;;2.20;;
34952;SDS011;21164;54.378;10.202;2022-08-03T15:22:25;9.60;;;2.53;;
34952;SDS011;21164;54.378;10.202;2022-08-03T15:24:51;9.65;;;2.10;;
34952;SDS011;21164;54.378;10.202;2022-08-03T15:27:17;7.95;;;2.35;;
34952;SDS011;21164;54.378;10.202;2022-08-03T15:29:42;11.00;;;3.28;;
34952;SDS011;21164;54.378;10.202;2022-08-03T15:32:08;10.88;;;2.50;;
34952;SDS011;21164;54.378;10.202;2022-08-03T15:34:33;9.13;;;2.17;;
34952;SDS011;21164;54.378;10.202;2022-08-03T15:36:59;5.88;;;2.00;;
34952;SDS011;21164;54.378;10.202;2022-08-03T15:39:24;7.72;;;1.95;;
34952;SDS011;21164;54.378;10.202;2022-08-03T15:41:50;10.25;;;2.35;;
34952;SDS011;21164;54.378;10.202;2022-08-03T15:44:19;7.05;;;1.90;;
34952;SDS011;21164;54.378;10.202;2022-08-03T15:46:44;6.20;;;1.90;;
34952;SDS011;21164;54.378;10.202;2022-08-03T15:49:11;5.57;;;1.80;;
34952;SDS011;21164;54.378;10.202;2022-08-03T15:51:37;10.13;;;1.80;;
34952;SDS011;21164;54.378;10.202;2022-08-03T15:54:03;8.90;;;1.83;;
34952;SDS011;21164;54.378;10.202;2022-08-03T15:56:29;7.80;;;1.77;;
34952;SDS011;21164;54.378;10.202;2022-08-03T15:58:54;13.15;;;2.53;;
34952;SDS011;21164;54.378;10.202;2022-08-03T16:01:21;6.82;;;1.90;;
34952;SDS011;21164;54.378;10.202;2022-08-03T16:03:49;9.85;;;2.20;;
34952;SDS011;21164;54.378;10.202;2022-08-03T16:06:14;7.20;;;2.05;;
34952;SDS011;21164;54.378;10.202;2022-08-03T16:08:40;10.98;;;2.17;;
34952;SDS011;21164;54.378;10.202;2022-08-03T16:11:05;7.95;;;1.73;;
34952;SDS011;21164;54.378;10.202;2022-08-03T16:13:31;8.10;;;1.80;;
34952;SDS011;21164;54.378;10.202;2022-08-03T16:15:57;9.90;;;2.55;;
34952;SDS011;21164;54.378;10.202;2022-08-03T16:18:23;8.07;;;1.85;;
34952;SDS011;21164;54.378;10.202;2022-08-03T16:20:49;8.32;;;1.90;;
34952;SDS011;21164;54.378;10.202;2022-08-03T16:23:15;9.38;;;2.20;;
34952;SDS011;21164;54.378;10.202;2022-08-03T16:25:44;6.63;;;1.92;;
34952;SDS011;21164;54.378;10.202;2022-08-03T16:28:10;7.55;;;1.77;;
34952;SDS011;21164;54.378;10.202;2022-08-03T16:30:36;7.97;;;2.08;;
34952;SDS011;21164;54.378;10.202;2022-08-03T16:33:02;6.10;;;1.70;;
34952;SDS011;21164;54.378;10.202;2022-08-03T16:35:28;7.95;;;1.85;;
34952;SDS011;21164;54.378;10.202;2022-08-03T16:37:54;8.40;;;2.10;;
34952;SDS011;21164;54.378;10.202;2022-08-03T16:40:19;5.90;;;2.00;;
34952;SDS011;21164;54.378;10.202;2022-08-03T16:42:45;6.45;;;1.77;;
34952;SDS011;21164;54.378;10.202;2022-08-03T16:45:11;8.35;;;2.35;;
34952;SDS011;21164;54.378;10.202;2022-08-03T16:47:37;5.32;;;1.83;;
34952;SDS011;21164;54.378;10.202;2022-08-03T16:50:03;5.28;;;1.45;;
34952;SDS011;21164;54.378;10.202;2022-08-03T16:52:29;10.00;;;2.00;;
34952;SDS011;21164;54.378;10.202;2022-08-03T16:54:55;6.07;;;1.60;;
34952;SDS011;21164;54.378;10.202;2022-08-03T16:57:21;5.97;;;1.60;;
34952;SDS011;21164;54.378;10.202;2022-08-03T16:59:47;7.63;;;2.05;;
34952;SDS011;21164;54.378;10.202;2022-08-03T17:02:20;7.85;;;2.08;;
34952;SDS011;21164;54.378;10.202;2022-08-03T17:04:48;8.25;;;1.85;;
34952;SDS011;21164;54.378;10.202;2022-08-03T17:07:15;5.43;;;1.60;;
34952;SDS011;21164;54.378;10.202;2022-08-03T17:09:42;12.88;;;2.80;;
34952;SDS011;21164;54.378;10.202;2022-08-03T17:12:08;4.80;;;1.70;;
34952;SDS011;21164;54.378;10.202;2022-08-03T17:14:34;10.88;;;2.20;;
34952;SDS011;21164;54.378;10.202;2022-08-03T17:17:01;6.13;;;1.95;;
34952;SDS011;21164;54.378;10.202;2022-08-03T17:19:29;6.20;;;1.90;;
34952;SDS011;21164;54.378;10.202;2022-08-03T17:21:58;7.30;;;1.75;;
34952;SDS011;21164;54.378;10.202;2022-08-03T17:24:38;8.15;;;2.03;;
34952;SDS011;21164;54.378;10.202;2022-08-03T17:27:08;10.07;;;2.03;;
34952;SDS011;21164;54.378;10.202;2022-08-03T17:29:41;7.53;;;1.95;;
34952;SDS011;21164;54.378;10.202;2022-08-03T17:32:10;5.25;;;1.98;;
34952;SDS011;21164;54.378;10.202;2022-08-03T17:34:39;7.65;;;1.70;;
34952;SDS011;21164;54.378;10.202;2022-08-03T17:37:13;9.82;;;2.03;;
34952;SDS011;21164;54.378;10.202;2022-08-03T17:39:40;6.30;;;1.92;;
34952;SDS011;21164;54.378;10.202;2022-08-03T17:42:08;7.60;;;2.60;;
34952;SDS011;21164;54.378;10.202;2022-08-03T17:44:35;8.63;;;1.90;;
34952;SDS011;21164;54.378;10.202;2022-08-03T17:47:01;9.98;;;2.17;;
34952;SDS011;21164;54.378;10.202;2022-08-03T17:49:27;5.85;;;1.98;;
34952;SDS011;21164;54.378;10.202;2022-08-03T17:51:56;8.15;;;1.70;;
34952;SDS011;21164;54.378;10.202;2022-08-03T17:54:34;9.27;;;2.22;;
34952;SDS011;21164;54.378;10.202;2022-08-03T17:57:10;11.23;;;2.60;;
34952;SDS011;21164;54.378;10.202;2022-08-03T17:59:41;8.93;;;2.08;;
34952;SDS011;21164;54.378;10.202;2022-08-03T18:05:16;7.50;;;2.10;;
34952;SDS011;21164;54.378;10.202;2022-08-03T18:07:45;8.40;;;2.03;;
34952;SDS011;21164;54.378;10.202;2022-08-03T18:10:14;8.85;;;2.10;;
34952;SDS011;21164;54.378;10.202;2022-08-03T18:12:46;9.45;;;2.10;;
34952;SDS011;21164;54.378;10.202;2022-08-03T18:15:14;8.55;;;2.10;;
34952;SDS011;21164;54.378;10.202;2022-08-03T18:17:46;5.28;;;1.80;;
34952;SDS011;21164;54.378;10.202;2022-08-03T18:20:16;7.00;;;2.15;;
34952;SDS011;21164;54.378;10.202;2022-08-03T18:22:44;8.63;;;2.00;;
34952;SDS011;21164;54.378;10.202;2022-08-03T18:25:10;13.38;;;2.60;;
34952;SDS011;21164;54.378;10.202;2022-08-03T18:27:38;8.68;;;2.20;;
34952;SDS011;21164;54.378;10.202;2022-08-03T18:30:05;10.55;;;2.80;;
34952;SDS011;21164;54.378;10.202;2022-08-03T18:32:31;8.23;;;2.65;;
34952;SDS011;21164;54.378;10.202;2022-08-03T18:34:58;9.68;;;2.40;;
34952;SDS011;21164;54.378;10.202;2022-08-03T18:37:27;10.40;;;2.60;;
34952;SDS011;21164;54.378;10.202;2022-08-03T18:39:54;7.15;;;2.60;;
34952;SDS011;21164;54.378;10.202;2022-08-03T18:42:20;7.72;;;2.00;;
34952;SDS011;21164;54.378;10.202;2022-08-03T18:44:47;11.30;;;2.88;;
34952;SDS011;21164;54.378;10.202;2022-08-03T18:55:27;9.88;;;3.03;;
34952;SDS011;21164;54.378;10.202;2022-08-03T18:58:14;8.68;;;2.83;;
34952;SDS011;21164;54.378;10.202;2022-08-03T19:03:41;8.73;;;3.13;;
34952;SDS011;21164;54.378;10.202;2022-08-03T19:06:17;10.73;;;2.85;;
34952;SDS011;21164;54.378;10.202;2022-08-03T19:08:48;9.85;;;3.05;;
34952;SDS011;21164;54.378;10.202;2022-08-03T19:11:51;9.98;;;3.88;;
34952;SDS011;21164;54.378;10.202;2022-08-03T19:14:21;8.18;;;3.80;;
34952;SDS011;21164;54.378;10.202;2022-08-03T19:16:48;9.40;;;3.22;;
34952;SDS011;21164;54.378;10.202;2022-08-03T19:19:17;9.55;;;4.00;;
34952;SDS011;21164;54.378;10.202;2022-08-03T19:21:45;9.18;;;3.28;;
34952;SDS011;21164;54.378;10.202;2022-08-03T19:24:12;10.95;;;3.58;;
34952;SDS011;21164;54.378;10.202;2022-08-03T19:26:38;12.63;;;3.15;;
34952;SDS011;21164;54.378;10.202;2022-08-03T19:29:06;13.10;;;3.55;;
34952;SDS011;21164;54.378;10.202;2022-08-03T19:31:35;11.07;;;3.70;;
34952;SDS011;21164;54.378;10.202;2022-08-03T19:34:02;9.70;;;3.72;;
34952;SDS011;21164;54.378;10.202;2022-08-03T19:36:28;11.38;;;3.55;;
34952;SDS011;21164;54.378;10.202;2022-08-03T19:38:55;10.88;;;3.60;;
34952;SDS011;21164;54.378;10.202;2022-08-03T19:41:26;12.52;;;4.05;;
34952;SDS011;21164;54.378;10.202;2022-08-03T19:43:57;9.73;;;4.07;;
34952;SDS011;21164;54.378;10.202;2022-08-03T19:46:27;11.32;;;3.65;;
34952;SDS011;21164;54.378;10.202;2022-08-03T19:48:57;10.60;;;3.97;;
34952;SDS011;21164;54.378;10.202;2022-08-03T19:51:31;10.55;;;4.15;;
34952;SDS011;21164;54.378;10.202;2022-08-03T19:53:59;11.88;;;4.70;;
34952;SDS011;21164;54.378;10.202;2022-08-03T19:56:27;15.13;;;4.18;;
34952;SDS011;21164;54.378;10.202;2022-08-03T19:58:54;10.60;;;3.90;;
34952;SDS011;21164;54.378;10.202;2022-08-03T20:01:21;12.02;;;4.53;;
34952;SDS011;21164;54.378;10.202;2022-08-03T20:03:47;14.90;;;5.00;;
34952;SDS011;21164;54.378;10.202;2022-08-03T20:06:14;11.27;;;4.43;;
34952;SDS011;21164;54.378;10.202;2022-08-03T20:08:47;12.68;;;4.28;;
34952;SDS011;21164;54.378;10.202;2022-08-03T20:11:13;11.27;;;4.35;;
34952;SDS011;21164;54.378;10.202;2022-08-03T20:13:39;12.27;;;4.68;;
34952;SDS011;21164;54.378;10.202;2022-08-03T20:16:08;12.32;;;4.70;;
34952;SDS011;21164;54.378;10.202;2022-08-03T20:21:02;18.67;;;4.35;;
34952;SDS011;21164;54.378;10.202;2022-08-03T20:23:34;12.00;;;4.93;;
34952;SDS011;21164;54.378;10.202;2022-08-03T20:26:03;15.10;;;4.20;;